sensor_id;sensor_type;location;lat;lon;timestamp;pressure;altitude;pressure_sealevel;temperature;humidity
19005;BME280;9635;52.078;8.648;2023-02-11T00:04:38;102065.16;;;4.46;76.75
19005;BME280;9635;52.078;8.648;2023-02-11T00:09:41;102046.59;;;4.74;75.54
19005;BME280;9635;52.078;8.648;2023-02-11T00:14:45;102036.84;;;4.75;76.06
19005;BME280;9635;52.078;8.648;2023-02-11T00:19:48;102032.25;;;4.50;77.35
19005;BME280;9635;52.078;8.648;2023-02-11T00:24:51;102040.69;;;4.65;76.81
19005;BME280;9635;52.078;8.648;2023-02-11T00:29:56;102056.84;;;4.58;77.09
19005;BME280;9635;52.078;8.648;2023-02-11T00:35:04;102058.38;;;4.66;77.34
19005;BME280;9635;52.078;8.648;2023-02-11T00:40:08;102042.69;;;4.86;76.67
19005;BME280;9635;52.078;8.648;2023-02-11T00:45:13;102043.16;;;4.71;77.40
19005;BME280;9635;52.078;8.648;2023-02-11T00:50:16;102052.28;;;4.62;77.76
19005;BME280;9635;52.078;8.648;2023-02-11T00:55:18;102047.28;;;4.81;77.32
19005;BME280;9635;52.078;8.648;2023-02-11T01:00:24;102061.66;;;4.75;77.54
19005;BME280;9635;52.078;8.648;2023-02-11T01:05:27;102062.06;;;4.61;78.43
19005;BME280;9635;52.078;8.648;2023-02-11T01:10:31;102071.19;;;4.82;78.81
19005;BME280;9635;52.078;8.648;2023-02-11T01:15:35;102080.63;;;4.65;80.30
19005;BME280;9635;52.078;8.648;2023-02-11T01:20:38;102072.31;;;4.44;82.12
19005;BME280;9635;52.078;8.648;2023-02-11T01:25:41;102065.84;;;4.23;84.01
19005;BME280;9635;52.078;8.648;2023-02-11T01:30:45;102039.78;;;4.34;84.34
19005;BME280;9635;52.078;8.648;2023-02-11T01:35:48;102036.03;;;3.78;86.51
19005;BME280;9635;52.078;8.648;2023-02-11T01:40:54;102020.63;;;4.22;86.41
19005;BME280;9635;52.078;8.648;2023-02-11T01:46:02;102030.59;;;3.82;87.70
19005;BME280;9635;52.078;8.648;2023-02-11T01:51:09;102020.63;;;4.22;86.10
19005;BME280;9635;52.078;8.648;2023-02-11T01:56:15;102024.66;;;4.36;85.72
19005;BME280;9635;52.078;8.648;2023-02-11T02:01:38;102018.94;;;4.19;87.08
19005;BME280;9635;52.078;8.648;2023-02-11T02:06:45;102020.50;;;3.95;89.19
19005;BME280;9635;52.078;8.648;2023-02-11T02:11:51;102033.50;;;4.37;85.98
19005;BME280;9635;52.078;8.648;2023-02-11T02:16:55;102020.78;;;4.17;86.95
19005;BME280;9635;52.078;8.648;2023-02-11T02:27:44;102001.56;;;4.37;85.51
19005;BME280;9635;52.078;8.648;2023-02-11T02:33:07;101986.03;;;4.23;85.70
19005;BME280;9635;52.078;8.648;2023-02-11T02:38:26;101984.81;;;4.04;86.98
19005;BME280;9635;52.078;8.648;2023-02-11T02:43:32;101982.94;;;4.37;85.36
19005;BME280;9635;52.078;8.648;2023-02-11T02:48:37;101984.25;;;4.22;86.35
19005;BME280;9635;52.078;8.648;2023-02-11T02:53:45;102007.97;;;4.30;85.47
19005;BME280;9635;52.078;8.648;2023-02-11T02:59:07;101992.81;;;4.33;85.08
19005;BME280;9635;52.078;8.648;2023-02-11T03:04:21;101987.53;;;4.32;85.16
19005;BME280;9635;52.078;8.648;2023-02-11T03:09:28;101987.53;;;4.32;85.36
19005;BME280;9635;52.078;8.648;2023-02-11T03:14:33;101986.34;;;4.11;87.27
19005;BME280;9635;52.078;8.648;2023-02-11T03:19:40;101973.63;;;4.22;87.91
19005;BME280;9635;52.078;8.648;2023-02-11T03:24:45;101978.47;;;4.08;88.04
19005;BME280;9635;52.078;8.648;2023-02-11T03:29:51;101975.91;;;3.72;91.45
19005;BME280;9635;52.078;8.648;2023-02-11T03:34:59;101970.50;;;3.75;91.25
19005;BME280;9635;52.078;8.648;2023-02-11T03:40:07;101958.75;;;3.84;91.18
19005;BME280;9635;52.078;8.648;2023-02-11T03:45:15;101937.25;;;3.60;92.65
19005;BME280;9635;52.078;8.648;2023-02-11T03:50:21;101933.00;;;3.55;93.23
19005;BME280;9635;52.078;8.648;2023-02-11T03:55:25;101948.06;;;3.54;94.22
19005;BME280;9635;52.078;8.648;2023-02-11T04:00:32;101960.53;;;3.83;91.65
19005;BME280;9635;52.078;8.648;2023-02-11T04:05:37;101956.34;;;3.75;91.99
19005;BME280;9635;52.078;8.648;2023-02-11T04:10:40;101964.97;;;3.84;91.19
19005;BME280;9635;52.078;8.648;2023-02-11T04:15:43;101967.75;;;3.80;91.64
19005;BME280;9635;52.078;8.648;2023-02-11T04:20:50;101962.78;;;3.99;90.39
19005;BME280;9635;52.078;8.648;2023-02-11T04:25:53;101962.72;;;4.00;89.19
19005;BME280;9635;52.078;8.648;2023-02-11T04:30:56;101957.16;;;4.09;88.29
19005;BME280;9635;52.078;8.648;2023-02-11T04:36:00;101947.16;;;4.17;87.82
19005;BME280;9635;52.078;8.648;2023-02-11T04:41:04;101958.47;;;4.26;86.46
19005;BME280;9635;52.078;8.648;2023-02-11T04:46:06;101943.69;;;4.15;86.88
19005;BME280;9635;52.078;8.648;2023-02-11T04:51:11;101945.66;;;4.09;86.45
19005;BME280;9635;52.078;8.648;2023-02-11T04:56:14;101946.34;;;4.15;86.09
19005;BME280;9635;52.078;8.648;2023-02-11T05:01:17;101959.41;;;4.23;85.67
19005;BME280;9635;52.078;8.648;2023-02-11T05:06:21;101962.19;;;4.18;85.58
19005;BME280;9635;52.078;8.648;2023-02-11T05:11:24;101950.91;;;4.10;85.77
19005;BME280;9635;52.078;8.648;2023-02-11T05:16:27;101968.53;;;4.14;85.93
19005;BME280;9635;52.078;8.648;2023-02-11T05:21:32;101957.59;;;4.25;84.88
19005;BME280;9635;52.078;8.648;2023-02-11T05:26:35;101960.16;;;4.28;84.73
19005;BME280;9635;52.078;8.648;2023-02-11T05:31:38;101946.25;;;4.48;83.63
19005;BME280;9635;52.078;8.648;2023-02-11T05:36:42;101947.41;;;4.39;83.07
19005;BME280;9635;52.078;8.648;2023-02-11T05:41:45;101946.00;;;4.56;83.44
19005;BME280;9635;52.078;8.648;2023-02-11T05:46:48;101947.09;;;4.49;83.80
19005;BME280;9635;52.078;8.648;2023-02-11T05:51:52;101941.84;;;4.47;83.45
19005;BME280;9635;52.078;8.648;2023-02-11T05:56:55;101953.56;;;4.70;82.30
19005;BME280;9635;52.078;8.648;2023-02-11T06:01:58;101950.81;;;4.45;82.80
19005;BME280;9635;52.078;8.648;2023-02-11T06:07:02;101947.88;;;4.52;83.00
19005;BME280;9635;52.078;8.648;2023-02-11T06:12:06;101941.88;;;4.46;82.91
19005;BME280;9635;52.078;8.648;2023-02-11T06:17:08;101941.47;;;4.30;84.12
19005;BME280;9635;52.078;8.648;2023-02-11T06:22:15;101957.41;;;4.61;82.62
19005;BME280;9635;52.078;8.648;2023-02-11T06:27:18;101954.22;;;4.48;83.19
19005;BME280;9635;52.078;8.648;2023-02-11T06:32:21;101958.16;;;4.35;83.45
19005;BME280;9635;52.078;8.648;2023-02-11T06:37:45;101961.66;;;4.37;83.31
19005;BME280;9635;52.078;8.648;2023-02-11T06:42:50;101975.47;;;4.20;84.82
19005;BME280;9635;52.078;8.648;2023-02-11T06:47:52;101978.06;;;4.22;84.26
19005;BME280;9635;52.078;8.648;2023-02-11T06:52:57;101973.81;;;4.16;84.25
19005;BME280;9635;52.078;8.648;2023-02-11T06:58:00;101985.94;;;4.26;84.51
19005;BME280;9635;52.078;8.648;2023-02-11T07:03:03;101966.47;;;4.24;84.83
19005;BME280;9635;52.078;8.648;2023-02-11T07:08:07;101974.50;;;4.23;84.93
19005;BME280;9635;52.078;8.648;2023-02-11T07:13:10;101975.88;;;4.36;84.04
19005;BME280;9635;52.078;8.648;2023-02-11T07:18:13;101964.44;;;4.32;84.75
19005;BME280;9635;52.078;8.648;2023-02-11T07:23:17;101979.28;;;4.11;85.13
19005;BME280;9635;52.078;8.648;2023-02-11T07:28:20;101987.53;;;4.32;84.71
19005;BME280;9635;52.078;8.648;2023-02-11T07:33:23;102002.81;;;4.25;86.06
19005;BME280;9635;52.078;8.648;2023-02-11T07:38:27;102005.53;;;4.22;85.46
19005;BME280;9635;52.078;8.648;2023-02-11T07:43:30;102003.28;;;4.39;85.09
19005;BME280;9635;52.078;8.648;2023-02-11T07:48:33;102011.38;;;4.35;85.02
19005;BME280;9635;52.078;8.648;2023-02-11T07:53:37;101990.75;;;4.43;85.17
19005;BME280;9635;52.078;8.648;2023-02-11T07:58:41;101990.22;;;4.60;83.97
19005;BME280;9635;52.078;8.648;2023-02-11T08:03:43;101998.75;;;4.71;84.08
19005;BME280;9635;52.078;8.648;2023-02-11T08:08:48;102003.34;;;4.66;84.50
19005;BME280;9635;52.078;8.648;2023-02-11T08:13:52;102010.66;;;4.59;84.52
19005;BME280;9635;52.078;8.648;2023-02-11T08:18:57;102007.84;;;4.94;83.33
19005;BME280;9635;52.078;8.648;2023-02-11T08:24:03;102008.69;;;4.66;84.07
19005;BME280;9635;52.078;8.648;2023-02-11T08:29:07;102014.91;;;4.67;84.34
19005;BME280;9635;52.078;8.648;2023-02-11T08:34:11;102027.13;;;4.43;85.92
19005;BME280;9635;52.078;8.648;2023-02-11T08:39:17;102033.34;;;4.73;84.89
19005;BME280;9635;52.078;8.648;2023-02-11T08:44:22;102028.00;;;4.73;84.43
19005;BME280;9635;52.078;8.648;2023-02-11T08:49:25;102025.50;;;4.96;84.13
19005;BME280;9635;52.078;8.648;2023-02-11T08:54:30;102024.28;;;4.78;84.51
19005;BME280;9635;52.078;8.648;2023-02-11T08:59:33;102022.19;;;4.88;84.62
19005;BME280;9635;52.078;8.648;2023-02-11T09:04:36;102036.13;;;4.68;85.75
19005;BME280;9635;52.078;8.648;2023-02-11T09:09:40;102041.56;;;4.65;85.37
19005;BME280;9635;52.078;8.648;2023-02-11T09:14:43;102055.81;;;4.62;85.90
19005;BME280;9635;52.078;8.648;2023-02-11T09:19:46;102070.63;;;4.73;85.86
19005;BME280;9635;52.078;8.648;2023-02-11T09:24:50;102066.25;;;4.70;86.25
19005;BME280;9635;52.078;8.648;2023-02-11T09:29:53;102078.63;;;4.42;87.60
19005;BME280;9635;52.078;8.648;2023-02-11T09:34:55;102087.63;;;4.67;86.15
19005;BME280;9635;52.078;8.648;2023-02-11T09:40:00;102087.63;;;4.67;87.33
19005;BME280;9635;52.078;8.648;2023-02-11T09:45:03;102096.00;;;5.14;84.69
19005;BME280;9635;52.078;8.648;2023-02-11T09:50:12;102096.19;;;4.78;86.63
19005;BME280;9635;52.078;8.648;2023-02-11T09:55:20;102104.50;;;4.97;84.82
19005;BME280;9635;52.078;8.648;2023-02-11T10:00:26;102108.78;;;5.03;85.39
19005;BME280;9635;52.078;8.648;2023-02-11T10:05:40;102107.16;;;4.66;88.08
19005;BME280;9635;52.078;8.648;2023-02-11T10:10:50;102102.28;;;5.13;85.64
19005;BME280;9635;52.078;8.648;2023-02-11T10:16:00;102117.47;;;4.78;86.84
19005;BME280;9635;52.078;8.648;2023-02-11T10:21:16;102117.28;;;4.84;87.02
19005;BME280;9635;52.078;8.648;2023-02-11T10:26:22;102119.97;;;4.84;87.37
19005;BME280;9635;52.078;8.648;2023-02-11T10:31:34;102130.69;;;5.13;86.60
19005;BME280;9635;52.078;8.648;2023-02-11T10:36:40;102134.66;;;4.99;86.39
19005;BME280;9635;52.078;8.648;2023-02-11T10:41:47;102134.00;;;4.90;87.81
19005;BME280;9635;52.078;8.648;2023-02-11T10:46:52;102133.25;;;4.86;88.34
19005;BME280;9635;52.078;8.648;2023-02-11T10:52:12;102146.38;;;4.92;88.67
19005;BME280;9635;52.078;8.648;2023-02-11T10:57:17;102135.69;;;4.94;89.81
19005;BME280;9635;52.078;8.648;2023-02-11T11:02:23;102125.25;;;4.86;89.99
19005;BME280;9635;52.078;8.648;2023-02-11T11:07:28;102125.97;;;5.22;90.22
19005;BME280;9635;52.078;8.648;2023-02-11T11:12:36;102124.16;;;5.23;90.23
19005;BME280;9635;52.078;8.648;2023-02-11T11:17:43;102120.66;;;5.21;88.71
19005;BME280;9635;52.078;8.648;2023-02-11T11:22:46;102129.91;;;5.09;89.75
19005;BME280;9635;52.078;8.648;2023-02-11T11:27:53;102130.28;;;4.95;90.62
19005;BME280;9635;52.078;8.648;2023-02-11T11:32:58;102141.47;;;5.66;87.52
19005;BME280;9635;52.078;8.648;2023-02-11T11:38:02;102146.31;;;5.53;86.37
19005;BME280;9635;52.078;8.648;2023-02-11T11:43:17;102124.22;;;5.49;87.59
19005;BME280;9635;52.078;8.648;2023-02-11T11:48:26;102122.47;;;5.48;87.68
19005;BME280;9635;52.078;8.648;2023-02-11T11:53:34;102124.44;;;5.70;86.71
19005;BME280;9635;52.078;8.648;2023-02-11T11:58:40;102128.69;;;5.49;87.69
19005;BME280;9635;52.078;8.648;2023-02-11T12:09:42;102111.75;;;5.50;87.29
19005;BME280;9635;52.078;8.648;2023-02-11T12:14:57;102115.09;;;5.57;87.11
19005;BME280;9635;52.078;8.648;2023-02-11T12:20:16;102115.28;;;5.50;87.79
19005;BME280;9635;52.078;8.648;2023-02-11T12:25:25;102122.41;;;5.50;87.04
19005;BME280;9635;52.078;8.648;2023-02-11T12:30:44;102121.13;;;5.62;86.94
19005;BME280;9635;52.078;8.648;2023-02-11T12:35:54;102112.53;;;5.80;86.33
19005;BME280;9635;52.078;8.648;2023-02-11T12:41:09;102113.38;;;5.82;85.79
19005;BME280;9635;52.078;8.648;2023-02-11T12:46:30;102110.13;;;6.24;84.38
19005;BME280;9635;52.078;8.648;2023-02-11T12:51:54;102121.13;;;6.15;83.30
19005;BME280;9635;52.078;8.648;2023-02-11T12:57:05;102111.44;;;6.12;83.62
19005;BME280;9635;52.078;8.648;2023-02-11T13:02:23;102127.59;;;6.08;83.76
19005;BME280;9635;52.078;8.648;2023-02-11T13:07:33;102112.91;;;6.46;82.33
19005;BME280;9635;52.078;8.648;2023-02-11T13:12:37;102105.75;;;6.47;81.14
19005;BME280;9635;52.078;8.648;2023-02-11T13:17:59;102117.97;;;6.54;80.89
19005;BME280;9635;52.078;8.648;2023-02-11T13:23:12;102109.66;;;6.85;80.50
19005;BME280;9635;52.078;8.648;2023-02-11T13:28:24;102127.00;;;6.75;80.84
19005;BME280;9635;52.078;8.648;2023-02-11T13:33:34;102126.09;;;6.51;81.50
19005;BME280;9635;52.078;8.648;2023-02-11T13:38:38;102122.56;;;6.50;81.85
19005;BME280;9635;52.078;8.648;2023-02-11T13:43:41;102106.66;;;6.71;81.04
19005;BME280;9635;52.078;8.648;2023-02-11T13:48:48;102106.03;;;6.88;80.17
19005;BME280;9635;52.078;8.648;2023-02-11T13:53:55;102100.56;;;7.14;78.95
19005;BME280;9635;52.078;8.648;2023-02-11T13:58:59;102115.00;;;6.85;79.55
19005;BME280;9635;52.078;8.648;2023-02-11T14:04:19;102102.00;;;6.52;81.58
19005;BME280;9635;52.078;8.648;2023-02-11T14:09:40;102104.94;;;6.70;81.49
19005;BME280;9635;52.078;8.648;2023-02-11T14:14:58;102105.63;;;7.22;78.90
19005;BME280;9635;52.078;8.648;2023-02-11T14:20:33;102101.41;;;6.93;80.39
19005;BME280;9635;52.078;8.648;2023-02-11T14:25:38;102114.44;;;6.77;80.45
19005;BME280;9635;52.078;8.648;2023-02-11T14:30:49;102114.53;;;6.99;79.78
19005;BME280;9635;52.078;8.648;2023-02-11T14:36:06;102111.72;;;6.78;80.84
19005;BME280;9635;52.078;8.648;2023-02-11T14:41:18;102107.19;;;6.80;80.27
19005;BME280;9635;52.078;8.648;2023-02-11T14:46:23;102121.50;;;7.03;79.76
19005;BME280;9635;52.078;8.648;2023-02-11T14:51:30;102129.19;;;6.89;79.59
19005;BME280;9635;52.078;8.648;2023-02-11T14:56:36;102132.84;;;6.84;80.12
19005;BME280;9635;52.078;8.648;2023-02-11T15:01:40;102129.31;;;6.84;81.15
19005;BME280;9635;52.078;8.648;2023-02-11T15:06:46;102145.22;;;6.89;80.40
19005;BME280;9635;52.078;8.648;2023-02-11T15:11:51;102148.06;;;6.82;80.59
19005;BME280;9635;52.078;8.648;2023-02-11T15:16:56;102155.16;;;6.83;80.47
19005;BME280;9635;52.078;8.648;2023-02-11T15:22:03;102173.38;;;6.72;81.09
19005;BME280;9635;52.078;8.648;2023-02-11T15:27:11;102175.19;;;6.97;80.47
19005;BME280;9635;52.078;8.648;2023-02-11T15:32:18;102178.13;;;6.89;80.02
19005;BME280;9635;52.078;8.648;2023-02-11T15:37:25;102166.00;;;7.04;79.88
19005;BME280;9635;52.078;8.648;2023-02-11T15:42:30;102175.03;;;7.23;79.40
19005;BME280;9635;52.078;8.648;2023-02-11T15:47:48;102175.81;;;6.78;80.77
19005;BME280;9635;52.078;8.648;2023-02-11T15:52:52;102176.41;;;6.87;80.69
19005;BME280;9635;52.078;8.648;2023-02-11T15:57:58;102194.44;;;6.80;81.21
19005;BME280;9635;52.078;8.648;2023-02-11T16:03:02;102183.16;;;7.22;79.52
19005;BME280;9635;52.078;8.648;2023-02-11T16:08:20;102182.63;;;6.89;80.39
19005;BME280;9635;52.078;8.648;2023-02-11T16:13:25;102186.75;;;6.72;81.23
19005;BME280;9635;52.078;8.648;2023-02-11T16:18:33;102182.84;;;7.06;80.30
19005;BME280;9635;52.078;8.648;2023-02-11T16:23:42;102181.88;;;7.09;79.76
19005;BME280;9635;52.078;8.648;2023-02-11T16:28:51;102188.00;;;6.87;80.93
19005;BME280;9635;52.078;8.648;2023-02-11T16:33:55;102201.91;;;6.97;80.59
19005;BME280;9635;52.078;8.648;2023-02-11T16:38:59;102212.47;;;6.75;81.21
19005;BME280;9635;52.078;8.648;2023-02-11T16:44:02;102223.59;;;6.88;80.56
19005;BME280;9635;52.078;8.648;2023-02-11T16:49:09;102229.63;;;6.94;80.54
19005;BME280;9635;52.078;8.648;2023-02-11T16:54:15;102220.31;;;7.04;80.15
19005;BME280;9635;52.078;8.648;2023-02-11T16:59:19;102223.34;;;6.69;81.99
19005;BME280;9635;52.078;8.648;2023-02-11T17:04:24;102225.38;;;6.89;81.33
19005;BME280;9635;52.078;8.648;2023-02-11T17:09:30;102221.63;;;6.68;81.63
19005;BME280;9635;52.078;8.648;2023-02-11T17:14:33;102228.44;;;6.51;82.95
19005;BME280;9635;52.078;8.648;2023-02-11T17:19:36;102213.75;;;6.63;82.26
19005;BME280;9635;52.078;8.648;2023-02-11T17:24:40;102220.94;;;6.88;81.28
19005;BME280;9635;52.078;8.648;2023-02-11T17:29:43;102234.06;;;6.94;80.88
19005;BME280;9635;52.078;8.648;2023-02-11T17:34:46;102236.19;;;6.84;81.21
19005;BME280;9635;52.078;8.648;2023-02-11T17:39:50;102240.91;;;7.02;80.05
19005;BME280;9635;52.078;8.648;2023-02-11T17:44:53;102240.16;;;6.72;81.99
19005;BME280;9635;52.078;8.648;2023-02-11T17:49:55;102249.03;;;6.73;81.47
19005;BME280;9635;52.078;8.648;2023-02-11T17:55:00;102251.19;;;6.88;81.29
19005;BME280;9635;52.078;8.648;2023-02-11T18:00:04;102248.66;;;6.83;81.21
19005;BME280;9635;52.078;8.648;2023-02-11T18:05:13;102258.34;;;6.88;81.36
19005;BME280;9635;52.078;8.648;2023-02-11T18:10:17;102275.50;;;6.80;80.71
19005;BME280;9635;52.078;8.648;2023-02-11T18:15:20;102274.66;;;6.78;81.53
19005;BME280;9635;52.078;8.648;2023-02-11T18:20:23;102300.28;;;6.84;81.38
19005;BME280;9635;52.078;8.648;2023-02-11T18:25:28;102302.88;;;6.87;81.33
19005;BME280;9635;52.078;8.648;2023-02-11T18:30:31;102300.34;;;6.82;81.36
19005;BME280;9635;52.078;8.648;2023-02-11T18:35:36;102292.19;;;6.85;81.02
19005;BME280;9635;52.078;8.648;2023-02-11T18:40:40;102290.53;;;6.83;81.52
19005;BME280;9635;52.078;8.648;2023-02-11T18:45:45;102288.78;;;6.82;81.66
19005;BME280;9635;52.078;8.648;2023-02-11T18:50:48;102305.56;;;6.85;81.75
19005;BME280;9635;52.078;8.648;2023-02-11T18:55:52;102313.06;;;6.74;82.64
19005;BME280;9635;52.078;8.648;2023-02-11T19:00:56;102316.03;;;6.67;83.12
19005;BME280;9635;52.078;8.648;2023-02-11T19:05:59;102318.91;;;6.85;82.60
19005;BME280;9635;52.078;8.648;2023-02-11T19:11:03;102315.34;;;6.87;82.10
19005;BME280;9635;52.078;8.648;2023-02-11T19:16:07;102329.72;;;6.82;82.54
19005;BME280;9635;52.078;8.648;2023-02-11T19:21:12;102333.16;;;6.61;83.79
19005;BME280;9635;52.078;8.648;2023-02-11T19:26:16;102330.88;;;6.75;83.68
19005;BME280;9635;52.078;8.648;2023-02-11T19:31:19;102346.53;;;6.86;83.17
19005;BME280;9635;52.078;8.648;2023-02-11T19:36:22;102353.59;;;6.60;83.94
19005;BME280;9635;52.078;8.648;2023-02-11T19:41:26;102362.25;;;6.69;83.59
19005;BME280;9635;52.078;8.648;2023-02-11T19:46:31;102353.03;;;7.05;82.42
19005;BME280;9635;52.078;8.648;2023-02-11T19:51:35;102361.16;;;6.74;83.30
19005;BME280;9635;52.078;8.648;2023-02-11T19:56:41;102365.06;;;6.92;82.58
19005;BME280;9635;52.078;8.648;2023-02-11T20:01:45;102370.97;;;6.74;83.54
19005;BME280;9635;52.078;8.648;2023-02-11T20:06:49;102366.56;;;6.73;83.31
19005;BME280;9635;52.078;8.648;2023-02-11T20:11:53;102368.56;;;6.94;82.52
19005;BME280;9635;52.078;8.648;2023-02-11T20:16:56;102370.50;;;6.89;82.89
19005;BME280;9635;52.078;8.648;2023-02-11T20:21:59;102362.31;;;6.67;84.27
19005;BME280;9635;52.078;8.648;2023-02-11T20:27:03;102366.00;;;6.63;84.69
19005;BME280;9635;52.078;8.648;2023-02-11T20:32:08;102375.38;;;7.03;82.98
19005;BME280;9635;52.078;8.648;2023-02-11T20:37:12;102378.53;;;6.89;83.37
19005;BME280;9635;52.078;8.648;2023-02-11T20:42:16;102385.31;;;6.99;82.73
19005;BME280;9635;52.078;8.648;2023-02-11T20:47:19;102384.41;;;6.72;84.63
19005;BME280;9635;52.078;8.648;2023-02-11T20:52:23;102385.44;;;7.21;82.32
19005;BME280;9635;52.078;8.648;2023-02-11T20:57:27;102390.53;;;7.02;83.28
19005;BME280;9635;52.078;8.648;2023-02-11T21:02:30;102396.44;;;7.12;82.55
19005;BME280;9635;52.078;8.648;2023-02-11T21:07:32;102389.16;;;6.91;84.02
19005;BME280;9635;52.078;8.648;2023-02-11T21:12:40;102391.56;;;6.98;82.91
19005;BME280;9635;52.078;8.648;2023-02-11T21:17:43;102404.16;;;7.21;82.21
19005;BME280;9635;52.078;8.648;2023-02-11T21:22:46;102418.81;;;6.81;84.10
19005;BME280;9635;52.078;8.648;2023-02-11T21:27:50;102405.78;;;6.99;82.75
19005;BME280;9635;52.078;8.648;2023-02-11T21:32:53;102417.31;;;7.01;82.74
19005;BME280;9635;52.078;8.648;2023-02-11T21:37:56;102427.63;;;7.12;82.02
19005;BME280;9635;52.078;8.648;2023-02-11T21:43:00;102436.63;;;7.09;81.76
19005;BME280;9635;52.078;8.648;2023-02-11T21:48:03;102437.13;;;6.94;82.25
19005;BME280;9635;52.078;8.648;2023-02-11T21:53:06;102432.34;;;7.05;81.86
19005;BME280;9635;52.078;8.648;2023-02-11T21:58:11;102447.22;;;7.12;81.75
19005;BME280;9635;52.078;8.648;2023-02-11T22:03:14;102457.41;;;7.27;80.65
19005;BME280;9635;52.078;8.648;2023-02-11T22:08:17;102460.09;;;7.26;80.40
19005;BME280;9635;52.078;8.648;2023-02-11T22:13:22;102454.50;;;7.07;81.58
19005;BME280;9635;52.078;8.648;2023-02-11T22:18:25;102465.63;;;6.95;81.73
19005;BME280;9635;52.078;8.648;2023-02-11T22:23:28;102466.75;;;7.14;80.86
19005;BME280;9635;52.078;8.648;2023-02-11T22:28:32;102464.81;;;7.19;81.28
19005;BME280;9635;52.078;8.648;2023-02-11T22:33:36;102476.06;;;7.02;81.83
19005;BME280;9635;52.078;8.648;2023-02-11T22:38:38;102478.78;;;7.01;81.52
19005;BME280;9635;52.078;8.648;2023-02-11T22:43:43;102478.63;;;7.05;81.39
19005;BME280;9635;52.078;8.648;2023-02-11T22:48:47;102492.09;;;7.02;81.20
19005;BME280;9635;52.078;8.648;2023-02-11T22:53:51;102493.19;;;6.97;81.19
19005;BME280;9635;52.078;8.648;2023-02-11T22:58:57;102497.66;;;7.23;80.30
19005;BME280;9635;52.078;8.648;2023-02-11T23:04:01;102487.75;;;6.98;81.63
19005;BME280;9635;52.078;8.648;2023-02-11T23:09:06;102493.53;;;7.13;80.71
19005;BME280;9635;52.078;8.648;2023-02-11T23:14:10;102506.53;;;7.23;80.13
19005;BME280;9635;52.078;8.648;2023-02-11T23:19:13;102514.72;;;7.19;80.55
19005;BME280;9635;52.078;8.648;2023-02-11T23:24:17;102515.69;;;7.16;80.67
19005;BME280;9635;52.078;8.648;2023-02-11T23:29:21;102516.06;;;7.05;81.21
19005;BME280;9635;52.078;8.648;2023-02-11T23:34:24;102527.00;;;6.96;81.24
19005;BME280;9635;52.078;8.648;2023-02-11T23:39:27;102536.81;;;6.97;81.36
19005;BME280;9635;52.078;8.648;2023-02-11T23:44:31;102529.34;;;7.07;81.46
19005;BME280;9635;52.078;8.648;2023-02-11T23:49:34;102525.34;;;7.20;80.40
19005;BME280;9635;52.078;8.648;2023-02-11T23:54:37;102510.28;;;6.91;81.50
19005;BME280;9635;52.078;8.648;2023-02-11T23:59:41;102518.94;;;6.99;81.13
